sensor_id;sensor_type;location;lat;lon;timestamp;pressure;altitude;pressure_sealevel;temperature;humidity
39491;BME280;25175;50.140;18.990;2023-05-02T00:01:55;98453.34;;;11.66;44.27
39491;BME280;25175;50.140;18.990;2023-05-02T00:05:03;98462.47;;;11.63;44.39
39491;BME280;25175;50.140;18.990;2023-05-02T00:08:10;98463.38;;;11.51;44.34
39491;BME280;25175;50.140;18.990;2023-05-02T00:11:20;98460.66;;;11.39;44.82
39491;BME280;25175;50.140;18.990;2023-05-02T00:14:25;98460.28;;;11.36;45.13
39491;BME280;25175;50.140;18.990;2023-05-02T00:17:31;98456.63;;;11.37;45.40
39491;BME280;25175;50.140;18.990;2023-05-02T00:20:41;98454.59;;;11.39;45.45
39491;BME280;25175;50.140;18.990;2023-05-02T00:23:46;98452.97;;;11.38;45.65
39491;BME280;25175;50.140;18.990;2023-05-02T00:26:52;98431.63;;;11.28;45.91
39491;BME280;25175;50.140;18.990;2023-05-02T00:29:57;98433.69;;;11.26;45.95
39491;BME280;25175;50.140;18.990;2023-05-02T00:33:03;98431.88;;;11.26;45.77
39491;BME280;25175;50.140;18.990;2023-05-02T00:36:16;98445.38;;;11.30;46.02
39491;BME280;25175;50.140;18.990;2023-05-02T00:39:27;98458.13;;;11.26;46.04
39491;BME280;25175;50.140;18.990;2023-05-02T00:42:33;98441.41;;;11.14;46.27
39491;BME280;25175;50.140;18.990;2023-05-02T00:45:38;98433.16;;;11.11;46.15
39491;BME280;25175;50.140;18.990;2023-05-02T00:48:45;98452.53;;;11.16;46.15
39491;BME280;25175;50.140;18.990;2023-05-02T00:51:57;98445.88;;;11.14;46.10
39491;BME280;25175;50.140;18.990;2023-05-02T00:55:03;98446.28;;;11.11;46.31
39491;BME280;25175;50.140;18.990;2023-05-02T00:58:13;98384.16;;;10.61;46.46
39491;BME280;25175;50.140;18.990;2023-05-02T01:01:30;98441.94;;;10.92;46.76
39491;BME280;25175;50.140;18.990;2023-05-02T01:05:10;98451.50;;;10.80;46.90
39491;BME280;25175;50.140;18.990;2023-05-02T01:08:34;98428.97;;;10.66;47.14
39491;BME280;25175;50.140;18.990;2023-05-02T01:11:59;98442.47;;;10.69;47.42
39491;BME280;25175;50.140;18.990;2023-05-02T01:15:11;98439.28;;;10.61;47.25
39491;BME280;25175;50.140;18.990;2023-05-02T01:18:34;98428.84;;;10.48;47.56
39491;BME280;25175;50.140;18.990;2023-05-02T01:21:47;98449.41;;;10.51;47.93
39491;BME280;25175;50.140;18.990;2023-05-02T01:25:17;98443.78;;;10.47;47.97
39491;BME280;25175;50.140;18.990;2023-05-02T01:28:48;98453.06;;;10.43;48.10
39491;BME280;25175;50.140;18.990;2023-05-02T01:32:01;98439.34;;;10.41;48.13
39491;BME280;25175;50.140;18.990;2023-05-02T01:35:12;98451.88;;;10.39;48.39
39491;BME280;25175;50.140;18.990;2023-05-02T01:38:26;98439.78;;;10.38;48.32
39491;BME280;25175;50.140;18.990;2023-05-02T01:41:35;98452.09;;;10.38;48.44
39491;BME280;25175;50.140;18.990;2023-05-02T01:44:49;98448.06;;;10.35;48.56
39491;BME280;25175;50.140;18.990;2023-05-02T01:48:00;98376.38;;;9.91;48.55
39491;BME280;25175;50.140;18.990;2023-05-02T01:51:11;98438.19;;;10.31;48.58
39491;BME280;25175;50.140;18.990;2023-05-02T01:54:21;98438.19;;;10.31;48.87
39491;BME280;25175;50.140;18.990;2023-05-02T01:57:29;98422.47;;;10.24;49.00
39491;BME280;25175;50.140;18.990;2023-05-02T02:00:39;98440.59;;;10.32;48.99
39491;BME280;25175;50.140;18.990;2023-05-02T02:03:47;98439.59;;;10.33;49.14
39491;BME280;25175;50.140;18.990;2023-05-02T02:06:57;98441.41;;;10.33;49.00
39491;BME280;25175;50.140;18.990;2023-05-02T02:10:08;98422.69;;;10.23;49.21
39491;BME280;25175;50.140;18.990;2023-05-02T02:13:18;98436.38;;;10.31;49.56
39491;BME280;25175;50.140;18.990;2023-05-02T02:16:41;98435.38;;;10.26;49.57
39491;BME280;25175;50.140;18.990;2023-05-02T02:20:00;98424.53;;;10.16;49.81
39491;BME280;25175;50.140;18.990;2023-05-02T02:23:15;98441.47;;;10.20;49.88
39491;BME280;25175;50.140;18.990;2023-05-02T02:26:25;98447.53;;;10.14;50.12
39491;BME280;25175;50.140;18.990;2023-05-02T02:29:31;98407.84;;;9.91;50.38
39491;BME280;25175;50.140;18.990;2023-05-02T02:32:39;98445.72;;;10.08;50.80
39491;BME280;25175;50.140;18.990;2023-05-02T02:35:52;98448.34;;;10.01;50.85
39491;BME280;25175;50.140;18.990;2023-05-02T02:39:27;98452.59;;;9.96;51.24
39491;BME280;25175;50.140;18.990;2023-05-02T02:42:54;98446.38;;;9.97;51.64
39491;BME280;25175;50.140;18.990;2023-05-02T02:46:19;98116.91;;;7.94;51.40
39491;BME280;25175;50.140;18.990;2023-05-02T02:49:46;98447.75;;;9.99;51.55
39491;BME280;25175;50.140;18.990;2023-05-02T02:53:15;98448.75;;;9.98;51.68
39491;BME280;25175;50.140;18.990;2023-05-02T02:56:28;98435.69;;;9.92;51.83
39491;BME280;25175;50.140;18.990;2023-05-02T02:59:50;98453.81;;;10.00;51.90
39491;BME280;25175;50.140;18.990;2023-05-02T03:03:06;98450.97;;;10.01;51.97
39491;BME280;25175;50.140;18.990;2023-05-02T03:06:15;98457.44;;;9.99;52.18
39491;BME280;25175;50.140;18.990;2023-05-02T03:09:22;98454.00;;;9.98;52.18
39491;BME280;25175;50.140;18.990;2023-05-02T03:12:31;98452.97;;;9.99;52.17
39491;BME280;25175;50.140;18.990;2023-05-02T03:19:37;98452.41;;;9.97;52.31
39491;BME280;25175;50.140;18.990;2023-05-02T03:22:45;98460.06;;;9.99;52.16
39491;BME280;25175;50.140;18.990;2023-05-02T03:25:51;98445.13;;;9.99;52.38
39491;BME280;25175;50.140;18.990;2023-05-02T03:29:00;98440.31;;;9.90;52.53
39491;BME280;25175;50.140;18.990;2023-05-02T03:32:11;98454.44;;;9.95;52.70
39491;BME280;25175;50.140;18.990;2023-05-02T03:35:19;98448.78;;;9.92;52.77
39491;BME280;25175;50.140;18.990;2023-05-02T03:38:31;98448.16;;;9.90;52.86
39491;BME280;25175;50.140;18.990;2023-05-02T03:41:41;98452.81;;;9.88;52.97
39491;BME280;25175;50.140;18.990;2023-05-02T03:44:52;98460.47;;;9.89;53.18
39491;BME280;25175;50.140;18.990;2023-05-02T03:47:59;98458.66;;;9.90;53.17
39491;BME280;25175;50.140;18.990;2023-05-02T03:51:05;98461.28;;;9.90;53.33
39491;BME280;25175;50.140;18.990;2023-05-02T03:54:20;98459.28;;;9.92;53.15
39491;BME280;25175;50.140;18.990;2023-05-02T03:57:25;98456.84;;;9.90;53.23
39491;BME280;25175;50.140;18.990;2023-05-02T04:01:21;98456.47;;;9.87;53.18
39491;BME280;25175;50.140;18.990;2023-05-02T04:04:23;98455.84;;;9.85;53.62
39491;BME280;25175;50.140;18.990;2023-05-02T04:07:30;98461.69;;;9.87;53.73
39491;BME280;25175;50.140;18.990;2023-05-02T04:10:41;98468.13;;;9.91;53.84
39491;BME280;25175;50.140;18.990;2023-05-02T04:13:47;98454.63;;;9.94;53.55
39491;BME280;25175;50.140;18.990;2023-05-02T04:16:53;98456.84;;;9.97;53.50
39491;BME280;25175;50.140;18.990;2023-05-02T04:20:10;98434.47;;;9.81;53.62
39491;BME280;25175;50.140;18.990;2023-05-02T04:23:20;98462.47;;;10.00;53.79
39491;BME280;25175;50.140;18.990;2023-05-02T04:26:33;98459.88;;;10.00;53.71
39491;BME280;25175;50.140;18.990;2023-05-02T04:29:42;98463.47;;;9.99;54.09
39491;BME280;25175;50.140;18.990;2023-05-02T04:32:48;98472.56;;;9.97;54.05
39491;BME280;25175;50.140;18.990;2023-05-02T04:35:54;98456.47;;;9.87;53.93
39491;BME280;25175;50.140;18.990;2023-05-02T04:39:01;98476.41;;;9.94;54.12
39491;BME280;25175;50.140;18.990;2023-05-02T04:42:13;98453.44;;;9.83;54.17
39491;BME280;25175;50.140;18.990;2023-05-02T04:45:29;98456.84;;;9.90;54.30
39491;BME280;25175;50.140;18.990;2023-05-02T04:48:35;98484.25;;;10.07;54.43
39491;BME280;25175;50.140;18.990;2023-05-02T04:51:50;98478.38;;;10.12;53.98
39491;BME280;25175;50.140;18.990;2023-05-02T04:54:57;98469.09;;;10.16;54.26
39491;BME280;25175;50.140;18.990;2023-05-02T04:58:20;98481.00;;;10.18;54.15
39491;BME280;25175;50.140;18.990;2023-05-02T05:01:35;98476.34;;;10.20;53.99
39491;BME280;25175;50.140;18.990;2023-05-02T05:04:42;98486.44;;;10.23;53.84
39491;BME280;25175;50.140;18.990;2023-05-02T05:07:47;98494.28;;;10.30;54.29
39491;BME280;25175;50.140;18.990;2023-05-02T05:10:54;98489.81;;;10.37;54.26
39491;BME280;25175;50.140;18.990;2023-05-02T05:14:04;98499.28;;;10.44;53.79
39491;BME280;25175;50.140;18.990;2023-05-02T05:17:12;98479.66;;;10.53;54.01
39491;BME280;25175;50.140;18.990;2023-05-02T05:20:24;98473.19;;;10.56;53.68
39491;BME280;25175;50.140;18.990;2023-05-02T05:23:37;98529.44;;;10.73;53.37
39491;BME280;25175;50.140;18.990;2023-05-02T05:26:50;98484.00;;;10.79;52.52
39491;BME280;25175;50.140;18.990;2023-05-02T05:29:58;98494.28;;;10.87;52.46
39491;BME280;25175;50.140;18.990;2023-05-02T05:33:18;98497.28;;;10.97;52.46
39491;BME280;25175;50.140;18.990;2023-05-02T05:36:24;98504.50;;;11.08;52.41
39491;BME280;25175;50.140;18.990;2023-05-02T05:39:30;98506.66;;;11.17;52.19
39491;BME280;25175;50.140;18.990;2023-05-02T05:42:37;98499.34;;;11.26;51.89
39491;BME280;25175;50.140;18.990;2023-05-02T05:45:54;98478.56;;;11.18;51.78
39491;BME280;25175;50.140;18.990;2023-05-02T05:48:59;98504.25;;;11.47;51.22
39491;BME280;25175;50.140;18.990;2023-05-02T05:52:06;98512.84;;;11.60;51.40
39491;BME280;25175;50.140;18.990;2023-05-02T05:55:11;98498.78;;;11.73;51.51
39491;BME280;25175;50.140;18.990;2023-05-02T05:58:20;98505.97;;;11.84;51.58
39491;BME280;25175;50.140;18.990;2023-05-02T06:01:30;98501.03;;;11.94;50.75
39491;BME280;25175;50.140;18.990;2023-05-02T06:04:38;98498.53;;;12.05;50.73
39491;BME280;25175;50.140;18.990;2023-05-02T06:07:44;98503.66;;;12.18;50.53
39491;BME280;25175;50.140;18.990;2023-05-02T06:10:50;98508.56;;;12.33;49.87
39491;BME280;25175;50.140;18.990;2023-05-02T06:13:55;98514.28;;;12.48;49.86
39491;BME280;25175;50.140;18.990;2023-05-02T06:17:06;98494.34;;;12.58;48.42
39491;BME280;25175;50.140;18.990;2023-05-02T06:20:11;98514.72;;;12.81;48.12
39491;BME280;25175;50.140;18.990;2023-05-02T06:23:17;98514.56;;;12.94;47.61
39491;BME280;25175;50.140;18.990;2023-05-02T06:26:23;98523.38;;;13.06;47.45
39491;BME280;25175;50.140;18.990;2023-05-02T06:29:28;98510.00;;;13.19;47.43
39491;BME280;25175;50.140;18.990;2023-05-02T06:32:38;98510.41;;;13.34;46.99
39491;BME280;25175;50.140;18.990;2023-05-02T06:35:50;98516.88;;;13.49;46.73
39491;BME280;25175;50.140;18.990;2023-05-02T06:38:55;98519.53;;;13.61;46.61
39491;BME280;25175;50.140;18.990;2023-05-02T06:45:19;98526.34;;;13.91;46.11
39491;BME280;25175;50.140;18.990;2023-05-02T06:48:28;98524.91;;;14.07;45.70
39491;BME280;25175;50.140;18.990;2023-05-02T06:51:33;98528.44;;;14.24;44.76
39491;BME280;25175;50.140;18.990;2023-05-02T06:54:42;98535.69;;;14.40;44.70
39491;BME280;25175;50.140;18.990;2023-05-02T06:57:48;98481.06;;;14.17;43.79
39491;BME280;25175;50.140;18.990;2023-05-02T07:00:55;98535.19;;;14.66;43.79
39491;BME280;25175;50.140;18.990;2023-05-02T07:04:02;98538.38;;;14.79;43.86
39491;BME280;25175;50.140;18.990;2023-05-02T07:07:08;98536.53;;;14.91;43.14
39491;BME280;25175;50.140;18.990;2023-05-02T07:10:13;98545.22;;;15.03;43.34
39491;BME280;25175;50.140;18.990;2023-05-02T07:13:19;98547.38;;;15.18;42.38
39491;BME280;25175;50.140;18.990;2023-05-02T07:16:34;98542.13;;;15.34;42.94
39491;BME280;25175;50.140;18.990;2023-05-02T07:19:57;98542.97;;;15.51;42.53
39491;BME280;25175;50.140;18.990;2023-05-02T07:23:05;98544.25;;;15.65;41.86
39491;BME280;25175;50.140;18.990;2023-05-02T07:26:11;98545.38;;;15.81;41.78
39491;BME280;25175;50.140;18.990;2023-05-02T07:32:51;98556.66;;;16.09;40.23
39491;BME280;25175;50.140;18.990;2023-05-02T07:36:03;98563.50;;;16.21;40.48
39491;BME280;25175;50.140;18.990;2023-05-02T07:39:24;98541.09;;;16.12;40.21
39491;BME280;25175;50.140;18.990;2023-05-02T07:42:30;98573.88;;;16.44;39.97
39491;BME280;25175;50.140;18.990;2023-05-02T07:45:36;98565.66;;;16.58;40.20
39491;BME280;25175;50.140;18.990;2023-05-02T07:48:41;98572.41;;;16.70;39.66
39491;BME280;25175;50.140;18.990;2023-05-02T07:51:52;98571.50;;;16.81;39.38
39491;BME280;25175;50.140;18.990;2023-05-02T07:54:57;98556.56;;;16.91;39.35
39491;BME280;25175;50.140;18.990;2023-05-02T07:58:03;98569.78;;;17.13;39.63
39491;BME280;25175;50.140;18.990;2023-05-02T08:01:09;98568.38;;;17.27;40.08
39491;BME280;25175;50.140;18.990;2023-05-02T08:04:15;98571.47;;;17.40;38.85
39491;BME280;25175;50.140;18.990;2023-05-02T08:07:22;98560.88;;;17.40;39.08
39491;BME280;25175;50.140;18.990;2023-05-02T08:10:29;98567.88;;;17.51;38.56
39491;BME280;25175;50.140;18.990;2023-05-02T08:14:01;98570.06;;;17.59;39.26
39491;BME280;25175;50.140;18.990;2023-05-02T08:17:08;98571.72;;;17.65;38.62
39491;BME280;25175;50.140;18.990;2023-05-02T08:20:13;98572.06;;;17.74;38.28
39491;BME280;25175;50.140;18.990;2023-05-02T08:23:23;98570.56;;;17.83;38.83
39491;BME280;25175;50.140;18.990;2023-05-02T08:26:34;98580.47;;;17.92;38.76
39491;BME280;25175;50.140;18.990;2023-05-02T08:29:40;98580.00;;;18.00;38.59
39491;BME280;25175;50.140;18.990;2023-05-02T08:32:45;98480.47;;;17.40;38.20
39491;BME280;25175;50.140;18.990;2023-05-02T08:35:52;98593.00;;;18.02;37.54
39491;BME280;25175;50.140;18.990;2023-05-02T08:39:07;98584.84;;;18.03;38.10
39491;BME280;25175;50.140;18.990;2023-05-02T08:42:15;98600.19;;;18.01;37.46
39491;BME280;25175;50.140;18.990;2023-05-02T08:45:22;98594.84;;;17.96;37.98
39491;BME280;25175;50.140;18.990;2023-05-02T08:48:31;98594.06;;;18.01;38.71
39491;BME280;25175;50.140;18.990;2023-05-02T08:51:40;98552.22;;;17.81;37.97
39491;BME280;25175;50.140;18.990;2023-05-02T08:54:52;98549.81;;;17.80;38.18
39491;BME280;25175;50.140;18.990;2023-05-02T08:57:58;98593.66;;;18.09;38.54
39491;BME280;25175;50.140;18.990;2023-05-02T09:01:14;98597.91;;;18.10;38.30
39491;BME280;25175;50.140;18.990;2023-05-02T09:04:23;98592.06;;;18.13;38.41
39491;BME280;25175;50.140;18.990;2023-05-02T09:07:47;98588.41;;;18.19;38.02
39491;BME280;25175;50.140;18.990;2023-05-02T09:10:57;98589.25;;;18.24;37.61
39491;BME280;25175;50.140;18.990;2023-05-02T09:14:13;98559.66;;;18.11;38.09
39491;BME280;25175;50.140;18.990;2023-05-02T09:17:19;98597.84;;;18.36;37.76
39491;BME280;25175;50.140;18.990;2023-05-02T09:20:26;98601.88;;;18.44;37.21
39491;BME280;25175;50.140;18.990;2023-05-02T09:23:33;98609.09;;;18.48;36.32
39491;BME280;25175;50.140;18.990;2023-05-02T09:26:56;98581.41;;;18.39;36.73
39491;BME280;25175;50.140;18.990;2023-05-02T09:30:22;98582.22;;;18.45;36.48
39491;BME280;25175;50.140;18.990;2023-05-02T09:33:29;98605.47;;;18.64;36.34
39491;BME280;25175;50.140;18.990;2023-05-02T09:36:39;98603.91;;;18.68;37.08
39491;BME280;25175;50.140;18.990;2023-05-02T09:40:06;98600.75;;;18.76;36.77
39491;BME280;25175;50.140;18.990;2023-05-02T09:43:18;98586.47;;;18.87;37.44
39491;BME280;25175;50.140;18.990;2023-05-02T09:46:25;98608.41;;;19.09;36.89
39491;BME280;25175;50.140;18.990;2023-05-02T09:49:44;98561.03;;;19.01;37.60
39491;BME280;25175;50.140;18.990;2023-05-02T09:53:00;98605.06;;;19.44;36.26
39491;BME280;25175;50.140;18.990;2023-05-02T09:56:07;98549.38;;;19.12;37.30
39491;BME280;25175;50.140;18.990;2023-05-02T09:59:15;98604.88;;;19.50;35.72
39491;BME280;25175;50.140;18.990;2023-05-02T10:02:50;98619.78;;;19.51;36.02
39491;BME280;25175;50.140;18.990;2023-05-02T10:06:48;98617.38;;;19.50;35.92
39491;BME280;25175;50.140;18.990;2023-05-02T10:10:02;98620.84;;;19.50;36.57
39491;BME280;25175;50.140;18.990;2023-05-02T10:13:09;98620.59;;;19.52;35.85
39491;BME280;25175;50.140;18.990;2023-05-02T10:16:27;98582.13;;;19.28;36.69
39491;BME280;25175;50.140;18.990;2023-05-02T10:19:44;98615.25;;;19.52;36.14
39491;BME280;25175;50.140;18.990;2023-05-02T10:22:59;98614.69;;;19.50;36.05
39491;BME280;25175;50.140;18.990;2023-05-02T10:26:05;98621.94;;;19.64;36.59
39491;BME280;25175;50.140;18.990;2023-05-02T10:29:15;98524.94;;;19.30;37.36
39491;BME280;25175;50.140;18.990;2023-05-02T10:32:37;98611.88;;;20.11;37.64
39491;BME280;25175;50.140;18.990;2023-05-02T10:35:44;98611.91;;;20.21;35.27
39491;BME280;25175;50.140;18.990;2023-05-02T10:38:51;98620.97;;;20.30;35.92
39491;BME280;25175;50.140;18.990;2023-05-02T10:41:58;98618.03;;;20.37;35.27
39491;BME280;25175;50.140;18.990;2023-05-02T10:45:11;98621.50;;;20.37;35.43
39491;BME280;25175;50.140;18.990;2023-05-02T10:48:21;98614.03;;;20.39;35.04
39491;BME280;25175;50.140;18.990;2023-05-02T10:51:29;98622.84;;;20.40;35.63
39491;BME280;25175;50.140;18.990;2023-05-02T10:54:37;98610.56;;;20.44;36.49
39491;BME280;25175;50.140;18.990;2023-05-02T10:58:18;98621.50;;;20.37;36.02
39491;BME280;25175;50.140;18.990;2023-05-02T11:01:36;98613.50;;;20.37;35.67
39491;BME280;25175;50.140;18.990;2023-05-02T11:05:02;98612.19;;;20.35;36.05
39491;BME280;25175;50.140;18.990;2023-05-02T11:08:29;98622.03;;;20.24;37.81
39491;BME280;25175;50.140;18.990;2023-05-02T11:11:39;98627.09;;;20.26;38.72
39491;BME280;25175;50.140;18.990;2023-05-02T11:14:46;98624.13;;;20.12;38.24
39491;BME280;25175;50.140;18.990;2023-05-02T11:18:00;98608.66;;;19.89;38.55
39491;BME280;25175;50.140;18.990;2023-05-02T11:21:28;98627.31;;;19.94;38.97
39491;BME280;25175;50.140;18.990;2023-05-02T11:24:41;98626.78;;;19.82;39.56
39491;BME280;25175;50.140;18.990;2023-05-02T11:27:48;98642.78;;;19.87;39.36
39491;BME280;25175;50.140;18.990;2023-05-02T11:30:54;98637.13;;;19.79;39.73
39491;BME280;25175;50.140;18.990;2023-05-02T11:34:01;98656.59;;;19.84;39.44
39491;BME280;25175;50.140;18.990;2023-05-02T11:37:14;98653.41;;;19.77;39.96
39491;BME280;25175;50.140;18.990;2023-05-02T11:40:19;98654.97;;;19.73;40.21
39491;BME280;25175;50.140;18.990;2023-05-02T11:43:27;98664.00;;;19.67;40.04
39491;BME280;25175;50.140;18.990;2023-05-02T11:46:45;98669.56;;;19.56;39.18
39491;BME280;25175;50.140;18.990;2023-05-02T11:49:54;98671.88;;;19.42;39.96
39491;BME280;25175;50.140;18.990;2023-05-02T11:53:09;98674.19;;;19.24;40.30
39491;BME280;25175;50.140;18.990;2023-05-02T11:56:23;98674.72;;;19.26;40.93
39491;BME280;25175;50.140;18.990;2023-05-02T11:59:30;98661.69;;;19.24;41.48
39491;BME280;25175;50.140;18.990;2023-05-02T12:02:53;98391.44;;;17.54;40.64
39491;BME280;25175;50.140;18.990;2023-05-02T12:06:08;98678.22;;;19.36;41.04
39491;BME280;25175;50.140;18.990;2023-05-02T12:09:21;98669.16;;;19.27;40.68
39491;BME280;25175;50.140;18.990;2023-05-02T12:16:11;98667.56;;;19.31;41.33
39491;BME280;25175;50.140;18.990;2023-05-02T12:19:20;98680.34;;;19.29;41.59
39491;BME280;25175;50.140;18.990;2023-05-02T12:22:27;98673.38;;;19.23;41.39
39491;BME280;25175;50.140;18.990;2023-05-02T12:25:39;98676.00;;;19.13;41.04
39491;BME280;25175;50.140;18.990;2023-05-02T12:28:51;98688.69;;;19.01;41.46
39491;BME280;25175;50.140;18.990;2023-05-02T12:32:05;98679.28;;;18.84;41.20
39491;BME280;25175;50.140;18.990;2023-05-02T12:35:20;98681.81;;;18.74;41.33
39491;BME280;25175;50.140;18.990;2023-05-02T12:38:26;98685.47;;;18.63;41.52
39491;BME280;25175;50.140;18.990;2023-05-02T12:41:37;98694.97;;;18.54;42.13
39491;BME280;25175;50.140;18.990;2023-05-02T12:44:48;98689.81;;;18.42;42.12
39491;BME280;25175;50.140;18.990;2023-05-02T12:47:58;98690.56;;;18.33;43.48
39491;BME280;25175;50.140;18.990;2023-05-02T12:51:04;98670.41;;;18.10;44.82
39491;BME280;25175;50.140;18.990;2023-05-02T12:54:19;98691.97;;;18.14;46.56
39491;BME280;25175;50.140;18.990;2023-05-02T12:57:29;98692.47;;;18.11;48.11
39491;BME280;25175;50.140;18.990;2023-05-02T13:00:44;98695.00;;;18.01;48.43
39491;BME280;25175;50.140;18.990;2023-05-02T13:03:50;98697.59;;;17.96;48.31
39491;BME280;25175;50.140;18.990;2023-05-02T13:06:58;98693.34;;;17.95;48.53
39491;BME280;25175;50.140;18.990;2023-05-02T13:10:04;98693.88;;;17.97;48.51
39491;BME280;25175;50.140;18.990;2023-05-02T13:13:15;98694.69;;;17.97;46.34
39491;BME280;25175;50.140;18.990;2023-05-02T13:16:23;98688.03;;;17.95;46.32
39491;BME280;25175;50.140;18.990;2023-05-02T13:19:29;98676.81;;;17.88;46.00
39491;BME280;25175;50.140;18.990;2023-05-02T13:22:37;98691.22;;;17.97;46.20
39491;BME280;25175;50.140;18.990;2023-05-02T13:25:44;98684.59;;;17.99;45.80
39491;BME280;25175;50.140;18.990;2023-05-02T13:28:55;98537.38;;;17.06;44.99
39491;BME280;25175;50.140;18.990;2023-05-02T13:32:07;98695.00;;;18.01;45.30
39491;BME280;25175;50.140;18.990;2023-05-02T13:35:20;98698.47;;;18.01;44.38
39491;BME280;25175;50.140;18.990;2023-05-02T13:38:46;98705.44;;;18.07;44.17
39491;BME280;25175;50.140;18.990;2023-05-02T13:41:52;98690.25;;;18.03;43.90
39491;BME280;25175;50.140;18.990;2023-05-02T13:45:04;98700.13;;;18.07;43.33
39491;BME280;25175;50.140;18.990;2023-05-02T13:55:00;98718.34;;;17.99;42.93
39491;BME280;25175;50.140;18.990;2023-05-02T13:58:07;98721.19;;;17.92;42.72
39491;BME280;25175;50.140;18.990;2023-05-02T14:09:37;98714.53;;;17.90;42.00
39491;BME280;25175;50.140;18.990;2023-05-02T14:12:42;98720.66;;;17.90;41.76
39491;BME280;25175;50.140;18.990;2023-05-02T14:15:49;98717.41;;;17.88;41.51
39491;BME280;25175;50.140;18.990;2023-05-02T14:19:48;98710.44;;;17.82;41.82
39491;BME280;25175;50.140;18.990;2023-05-02T14:27:06;98719.34;;;17.71;41.22
39491;BME280;25175;50.140;18.990;2023-05-02T14:30:18;98730.41;;;17.63;40.40
39491;BME280;25175;50.140;18.990;2023-05-02T14:37:57;98738.31;;;17.58;40.15
39491;BME280;25175;50.140;18.990;2023-05-02T14:41:11;98633.66;;;16.90;39.70
39491;BME280;25175;50.140;18.990;2023-05-02T14:44:21;98752.56;;;17.52;39.32
39491;BME280;25175;50.140;18.990;2023-05-02T14:47:48;98744.69;;;17.41;39.66
39491;BME280;25175;50.140;18.990;2023-05-02T14:50:54;98758.84;;;17.46;39.41
39491;BME280;25175;50.140;18.990;2023-05-02T14:54:02;98756.69;;;17.43;39.52
39491;BME280;25175;50.140;18.990;2023-05-02T14:57:27;98767.53;;;17.42;39.69
39491;BME280;25175;50.140;18.990;2023-05-02T15:00:36;98761.97;;;17.43;39.49
39491;BME280;25175;50.140;18.990;2023-05-02T15:03:42;98755.44;;;17.29;38.88
39491;BME280;25175;50.140;18.990;2023-05-02T15:06:54;98756.47;;;17.28;39.41
39491;BME280;25175;50.140;18.990;2023-05-02T15:10:02;98772.97;;;17.30;39.64
39491;BME280;25175;50.140;18.990;2023-05-02T15:13:09;98789.00;;;17.24;40.72
39491;BME280;25175;50.140;18.990;2023-05-02T15:16:17;98793.44;;;17.18;40.33
39491;BME280;25175;50.140;18.990;2023-05-02T15:19:23;98777.13;;;16.93;40.10
39491;BME280;25175;50.140;18.990;2023-05-02T15:22:28;98806.38;;;16.98;40.63
39491;BME280;25175;50.140;18.990;2023-05-02T15:25:34;98820.28;;;16.89;41.28
39491;BME280;25175;50.140;18.990;2023-05-02T15:28:39;98808.78;;;16.83;44.13
39491;BME280;25175;50.140;18.990;2023-05-02T15:32:03;98823.94;;;16.71;45.41
39491;BME280;25175;50.140;18.990;2023-05-02T15:35:10;98824.16;;;16.53;45.55
39491;BME280;25175;50.140;18.990;2023-05-02T15:38:39;98838.22;;;16.42;46.55
39491;BME280;25175;50.140;18.990;2023-05-02T15:45:49;98844.78;;;16.12;44.85
39491;BME280;25175;50.140;18.990;2023-05-02T15:49:21;98852.19;;;15.98;45.09
39491;BME280;25175;50.140;18.990;2023-05-02T15:52:33;98855.16;;;15.90;45.43
39491;BME280;25175;50.140;18.990;2023-05-02T15:55:49;98849.56;;;15.76;47.37
39491;BME280;25175;50.140;18.990;2023-05-02T16:03:00;98850.91;;;15.55;49.33
39491;BME280;25175;50.140;18.990;2023-05-02T16:06:10;98856.56;;;15.47;49.38
39491;BME280;25175;50.140;18.990;2023-05-02T16:09:16;98852.09;;;15.48;49.83
39491;BME280;25175;50.140;18.990;2023-05-02T16:12:29;98861.63;;;15.48;50.78
39491;BME280;25175;50.140;18.990;2023-05-02T16:15:36;98861.16;;;15.51;51.41
39491;BME280;25175;50.140;18.990;2023-05-02T16:18:43;98869.22;;;15.56;52.18
39491;BME280;25175;50.140;18.990;2023-05-02T16:22:00;98864.38;;;15.65;51.82
39491;BME280;25175;50.140;18.990;2023-05-02T16:25:11;98855.78;;;15.70;51.66
39491;BME280;25175;50.140;18.990;2023-05-02T16:28:17;98864.84;;;15.73;51.84
39491;BME280;25175;50.140;18.990;2023-05-02T16:31:24;98872.56;;;15.75;51.17
39491;BME280;25175;50.140;18.990;2023-05-02T16:34:33;98734.72;;;14.91;51.81
39491;BME280;25175;50.140;18.990;2023-05-02T16:41:48;98875.34;;;15.80;51.34
39491;BME280;25175;50.140;18.990;2023-05-02T16:44:58;98878.78;;;15.81;51.44
39491;BME280;25175;50.140;18.990;2023-05-02T16:48:05;98680.75;;;14.35;51.68
39491;BME280;25175;50.140;18.990;2023-05-02T16:51:11;98894.09;;;15.78;50.92
39491;BME280;25175;50.140;18.990;2023-05-02T16:54:32;98890.88;;;15.77;51.38
39491;BME280;25175;50.140;18.990;2023-05-02T16:57:41;98881.91;;;15.77;51.25
39491;BME280;25175;50.140;18.990;2023-05-02T17:00:47;98890.53;;;15.73;51.52
39491;BME280;25175;50.140;18.990;2023-05-02T17:03:53;98879.91;;;15.61;51.55
39491;BME280;25175;50.140;18.990;2023-05-02T17:06:58;98901.78;;;15.57;50.31
39491;BME280;25175;50.140;18.990;2023-05-02T17:10:11;98913.28;;;15.51;49.76
39491;BME280;25175;50.140;18.990;2023-05-02T17:13:18;98846.31;;;15.05;49.68
39491;BME280;25175;50.140;18.990;2023-05-02T17:16:39;98879.97;;;15.09;50.15
39491;BME280;25175;50.140;18.990;2023-05-02T17:19:44;98928.56;;;15.38;49.39
39491;BME280;25175;50.140;18.990;2023-05-02T17:23:03;98930.94;;;15.27;49.76
39491;BME280;25175;50.140;18.990;2023-05-02T17:26:12;98934.28;;;15.23;49.58
39491;BME280;25175;50.140;18.990;2023-05-02T17:29:49;98932.88;;;15.21;49.22
39491;BME280;25175;50.140;18.990;2023-05-02T17:32:58;98930.69;;;15.18;49.24